Time;durP1;ratioP1;P1;durP2;ratioP2;P2;SDS_P1;SDS_P2;PMS_P1;PMS_P2;Temp;Humidity;BMP_temperature;BMP_pressure;BME280_temperature;BME280_humidity;BME280_pressure;Samples;Min_cycle;Max_cycle;Signal;HPM_P1;HPM_P2
2022/06/24 00:01:58;;;;;;;11.35;3.92;;;21.00;99.90;;;;;;5047355;28;20499;-78
2022/06/24 00:04:30;;;;;;;9.90;3.30;;;21.00;99.90;;;;;;5045553;28;20411;-79
2022/06/24 00:06:59;;;;;;;9.20;3.28;;;21.10;99.90;;;;;;5044997;28;20060;-80
2022/06/24 00:09:30;;;;;;;8.93;3.40;;;21.10;99.90;;;;;;5048757;28;20041;-79
2022/06/24 00:12:03;;;;;;;12.57;3.38;;;21.10;99.90;;;;;;5064429;28;20067;-80
2022/06/24 00:14:29;;;;;;;10.80;3.20;;;21.10;99.90;;;;;;5063366;28;20036;-80
2022/06/24 00:16:59;;;;;;;8.43;3.00;;;20.60;99.90;;;;;;5045571;28;20037;-80
2022/06/24 00:19:27;;;;;;;9.98;2.90;;;21.00;99.90;;;;;;5045486;28;20132;-80
2022/06/24 00:22:12;;;;;;;7.63;2.95;;;20.90;99.90;;;;;;5046332;28;20040;-80
2022/06/24 00:24:39;;;;;;;7.75;2.88;;;20.90;99.90;;;;;;5047579;28;20421;-80
2022/06/24 00:27:20;;;;;;;8.07;3.13;;;20.80;99.90;;;;;;5062744;28;20119;-80
2022/06/24 00:29:47;;;;;;;7.80;2.75;;;20.70;99.90;;;;;;5048224;28;20086;-80
2022/06/24 00:32:12;;;;;;;7.35;2.80;;;20.70;99.90;;;;;;5085150;28;20400;-80
2022/06/24 00:34:40;;;;;;;8.32;2.90;;;20.60;99.90;;;;;;5051613;28;20060;-80
2022/06/24 00:37:26;;;;;;;7.63;2.90;;;20.60;99.90;;;;;;5061571;28;20491;-79
2022/06/24 00:40:09;;;;;;;6.63;2.58;;;20.60;99.90;;;;;;5052198;28;20077;-80
2022/06/24 00:42:40;;;;;;;7.10;2.47;;;20.60;99.90;;;;;;5064877;28;20039;-80
2022/06/24 00:45:28;;;;;;;8.38;2.90;;;20.50;99.90;;;;;;5083183;28;20096;-80
2022/06/24 00:47:56;;;;;;;8.38;3.05;;;20.40;99.90;;;;;;5065302;28;20040;-80
2022/06/24 00:50:23;;;;;;;8.65;3.17;;;20.20;99.90;;;;;;5047861;28;20040;-80
2022/06/24 00:52:52;;;;;;;8.82;3.30;;;20.10;99.90;;;;;;5082274;28;20447;-80
2022/06/24 00:55:36;;;;;;;7.93;3.30;;;20.00;99.90;;;;;;5064687;28;20037;-80
2022/06/24 00:58:04;;;;;;;12.15;4.32;;;19.90;99.90;;;;;;5063085;28;20556;-79
2022/06/24 01:00:33;;;;;;;10.15;3.40;;;19.80;99.90;;;;;;5067983;28;20032;-80
2022/06/24 01:03:01;;;;;;;10.25;4.20;;;19.70;99.90;;;;;;5084098;28;20131;-80
2022/06/24 01:05:28;;;;;;;9.65;4.03;;;19.60;99.90;;;;;;5068931;28;20535;-80
2022/06/24 01:07:55;;;;;;;9.15;4.03;;;19.60;99.90;;;;;;5064919;28;20434;-80
2022/06/24 01:10:21;;;;;;;9.23;4.13;;;19.50;99.90;;;;;;5065516;28;20036;-80
2022/06/24 01:12:47;;;;;;;9.07;4.22;;;19.50;99.90;;;;;;5063346;28;20082;-80
2022/06/24 01:15:12;;;;;;;8.98;3.60;;;19.50;99.90;;;;;;5084565;28;20040;-80
2022/06/24 01:17:39;;;;;;;9.40;3.70;;;19.40;99.90;;;;;;5049959;28;20127;-80
2022/06/24 01:20:09;;;;;;;8.35;3.65;;;19.40;99.90;;;;;;5068764;28;20646;-80
2022/06/24 01:22:35;;;;;;;7.40;3.33;;;19.40;99.90;;;;;;5082207;28;20044;-80
2022/06/24 01:25:01;;;;;;;9.27;3.83;;;19.30;99.90;;;;;;5066141;28;20031;-80
2022/06/24 01:27:27;;;;;;;9.15;3.30;;;19.30;99.90;;;;;;5064274;28;20055;-80
2022/06/24 01:29:53;;;;;;;9.38;3.10;;;19.30;99.90;;;;;;5053275;28;20498;-80
2022/06/24 01:32:20;;;;;;;7.90;3.10;;;19.30;99.90;;;;;;5079744;28;20066;-79
2022/06/24 01:34:45;;;;;;;6.95;2.88;;;19.30;99.90;;;;;;5067597;28;20042;-79
2022/06/24 01:37:12;;;;;;;7.88;3.30;;;19.30;99.90;;;;;;5084725;28;20040;-80
2022/06/24 01:39:38;;;;;;;8.93;3.20;;;19.30;99.90;;;;;;5075791;28;20039;-80
2022/06/24 01:42:04;;;;;;;8.07;2.83;;;19.20;99.90;;;;;;5065557;28;20374;-80
2022/06/24 01:44:30;;;;;;;9.95;3.10;;;19.20;99.90;;;;;;5043990;28;20040;-80
2022/06/24 01:46:56;;;;;;;10.35;3.40;;;19.10;99.90;;;;;;5065166;28;20485;-80
2022/06/24 01:49:21;;;;;;;7.82;3.10;;;19.10;99.90;;;;;;5064270;28;20043;-80
2022/06/24 01:51:49;;;;;;;6.90;2.83;;;19.00;99.90;;;;;;5051489;28;20036;-80
2022/06/24 01:54:15;;;;;;;7.85;3.08;;;19.00;99.90;;;;;;5064783;28;20047;-80
2022/06/24 01:56:41;;;;;;;7.40;3.10;;;19.00;99.90;;;;;;5067687;28;20028;-80
2022/06/24 01:59:07;;;;;;;7.93;3.10;;;18.90;99.90;;;;;;5068309;28;20036;-80
2022/06/24 02:01:33;;;;;;;8.70;3.22;;;18.90;99.90;;;;;;5018850;28;20040;-79
2022/06/24 02:03:58;;;;;;;7.18;2.97;;;18.90;99.90;;;;;;5064771;28;20047;-80
2022/06/24 02:06:24;;;;;;;9.40;3.20;;;18.90;99.90;;;;;;5068760;28;20258;-79
2022/06/24 02:08:51;;;;;;;10.05;3.30;;;18.90;99.90;;;;;;5068439;28;20099;-79
2022/06/24 02:14:09;;;;;;;7.72;3.20;;;18.80;99.90;;;;;;5069822;28;20398;-79
2022/06/24 02:16:36;;;;;;;8.50;3.15;;;18.80;99.90;;;;;;5053534;28;20102;-79
2022/06/24 02:19:03;;;;;;;8.63;3.20;;;18.70;99.90;;;;;;5046321;28;20047;-79
2022/06/24 02:21:29;;;;;;;7.47;3.33;;;18.70;99.90;;;;;;5087097;28;20403;-79
2022/06/24 02:23:54;;;;;;;8.45;3.58;;;18.70;99.90;;;;;;5045808;28;20202;-79
2022/06/24 02:26:21;;;;;;;8.25;3.38;;;18.60;99.90;;;;;;5070584;28;20032;-79
2022/06/24 02:28:46;;;;;;;7.55;3.20;;;18.60;99.90;;;;;;5085570;28;20044;-79
2022/06/24 02:31:12;;;;;;;8.02;3.60;;;18.60;99.90;;;;;;5087929;28;20042;-79
2022/06/24 02:33:39;;;;;;;7.88;3.08;;;18.60;99.90;;;;;;5065710;28;20109;-79
2022/06/24 02:36:06;;;;;;;7.90;3.60;;;18.50;99.90;;;;;;5083460;28;20064;-80
2022/06/24 02:38:32;;;;;;;7.90;3.70;;;18.50;99.90;;;;;;5086206;28;20432;-79
2022/06/24 02:40:58;;;;;;;8.68;3.83;;;18.40;99.90;;;;;;5029301;28;20393;-79
2022/06/24 02:43:25;;;;;;;10.45;3.58;;;18.40;99.90;;;;;;5087380;28;20040;-79
2022/06/24 02:45:58;;;;;;;10.05;4.20;;;18.30;99.90;;;;;;5085293;28;20115;-79
2022/06/24 02:48:25;;;;;;;9.02;4.05;;;18.30;99.90;;;;;;5067647;28;20131;-80
2022/06/24 02:50:52;;;;;;;10.30;4.10;;;18.20;99.90;;;;;;5088666;28;20028;-80
2022/06/24 02:53:19;;;;;;;10.70;3.60;;;18.20;99.90;;;;;;5066333;28;20032;-80
2022/06/24 02:55:48;;;;;;;8.13;3.67;;;18.20;99.90;;;;;;5084841;28;21284;-80
2022/06/24 02:58:14;;;;;;;9.23;4.03;;;18.20;99.90;;;;;;5071292;28;20032;-79
2022/06/24 03:00:41;;;;;;;8.25;3.88;;;18.10;99.90;;;;;;5086590;28;20409;-80
2022/06/24 03:03:08;;;;;;;9.70;3.80;;;18.10;99.90;;;;;;5070109;28;20976;-79
2022/06/24 03:05:34;;;;;;;9.00;3.63;;;18.10;99.90;;;;;;5048094;28;20434;-79
2022/06/24 03:08:01;;;;;;;8.82;4.10;;;18.10;99.90;;;;;;5069572;28;20105;-80
2022/06/24 03:10:27;;;;;;;9.45;3.97;;;18.00;99.90;;;;;;5069198;28;20075;-79
2022/06/24 03:12:52;;;;;;;9.77;3.88;;;18.00;99.90;;;;;;5052103;28;20071;-79
2022/06/24 03:15:19;;;;;;;8.40;3.65;;;18.00;99.90;;;;;;5063840;28;20040;-79
2022/06/24 03:17:45;;;;;;;8.00;3.60;;;17.90;99.90;;;;;;5066446;28;20043;-79
2022/06/24 03:20:11;;;;;;;8.10;3.80;;;17.90;99.90;;;;;;5052070;28;20028;-79
2022/06/24 03:22:37;;;;;;;8.13;3.70;;;17.90;99.90;;;;;;5065897;28;20412;-79
2022/06/24 03:25:04;;;;;;;9.95;3.92;;;17.90;99.90;;;;;;5051255;28;20084;-79
2022/06/24 03:27:30;;;;;;;8.43;4.18;;;17.90;99.90;;;;;;5069518;28;20044;-79
2022/06/24 03:29:55;;;;;;;8.32;3.80;;;17.90;99.90;;;;;;5070311;28;20137;-79
2022/06/24 03:32:21;;;;;;;8.18;3.67;;;17.90;99.90;;;;;;5084437;28;20042;-79
2022/06/24 03:34:47;;;;;;;9.32;4.15;;;17.90;99.90;;;;;;5045693;28;20071;-79
2022/06/24 03:37:13;;;;;;;8.75;3.95;;;17.90;99.90;;;;;;5034226;28;20036;-79
2022/06/24 03:39:39;;;;;;;8.88;3.45;;;17.90;99.90;;;;;;5068315;28;20028;-79
2022/06/24 03:42:05;;;;;;;9.18;3.58;;;18.00;99.90;;;;;;5067630;28;20438;-79
2022/06/24 03:44:31;;;;;;;8.27;3.47;;;18.00;99.90;;;;;;5052772;28;20036;-79
2022/06/24 03:46:57;;;;;;;8.70;3.70;;;18.10;99.90;;;;;;5065905;28;20040;-79
2022/06/24 03:49:23;;;;;;;7.85;3.67;;;18.10;99.90;;;;;;5051937;28;20051;-79
2022/06/24 03:51:49;;;;;;;8.52;3.80;;;18.20;99.90;;;;;;5049273;28;20505;-79
2022/06/24 03:54:15;;;;;;;8.18;3.90;;;18.20;99.90;;;;;;5068140;28;20075;-79
2022/06/24 03:56:41;;;;;;;8.82;3.75;;;18.20;99.90;;;;;;5084461;28;20638;-79
2022/06/24 03:59:07;;;;;;;11.18;3.70;;;18.20;99.90;;;;;;5084860;28;20040;-80
2022/06/24 04:01:33;;;;;;;7.55;3.53;;;18.20;99.90;;;;;;5064072;28;20379;-79
2022/06/24 04:03:58;;;;;;;8.35;3.30;;;18.20;99.90;;;;;;5044873;28;20036;-80
2022/06/24 04:06:24;;;;;;;7.95;3.65;;;18.20;99.90;;;;;;5047459;28;20527;-80
2022/06/24 04:08:52;;;;;;;11.02;4.05;;;18.20;99.90;;;;;;5066871;28;20039;-79
2022/06/24 04:11:18;;;;;;;7.60;3.75;;;18.20;99.90;;;;;;4987627;28;1125275;-80
2022/06/24 04:13:45;;;;;;;8.55;3.53;;;18.30;99.90;;;;;;5067829;28;20048;-79
2022/06/24 04:16:11;;;;;;;8.77;3.90;;;18.30;99.90;;;;;;5067517;28;20680;-79
2022/06/24 04:18:37;;;;;;;8.13;3.60;;;18.40;99.90;;;;;;5085215;28;20482;-79
2022/06/24 04:21:10;;;;;;;9.43;3.88;;;18.50;99.90;;;;;;5053336;28;20059;-80
2022/06/24 04:23:36;;;;;;;7.47;3.65;;;18.50;99.90;;;;;;5066471;28;20032;-80
2022/06/24 04:26:02;;;;;;;9.98;4.15;;;18.60;99.90;;;;;;5068371;28;20040;-79
2022/06/24 04:28:27;;;;;;;8.32;3.83;;;18.70;99.90;;;;;;5087854;28;20519;-80
2022/06/24 04:30:53;;;;;;;9.95;3.60;;;18.80;99.90;;;;;;5050763;28;20206;-80
2022/06/24 04:33:19;;;;;;;7.70;3.80;;;18.80;99.90;;;;;;5052202;28;20040;-80
2022/06/24 04:35:44;;;;;;;8.90;3.97;;;18.90;99.90;;;;;;5048055;28;20508;-80
2022/06/24 04:38:10;;;;;;;10.90;3.78;;;19.00;99.90;;;;;;5028064;28;20033;-80
2022/06/24 04:40:36;;;;;;;10.00;3.65;;;19.10;99.90;;;;;;5068545;28;20040;-80
2022/06/24 04:43:02;;;;;;;8.98;3.70;;;19.20;99.90;;;;;;5049644;28;20035;-80
2022/06/24 04:45:28;;;;;;;7.40;3.20;;;19.30;99.90;;;;;;5064471;28;20047;-79
2022/06/24 04:47:54;;;;;;;7.88;3.60;;;19.40;99.90;;;;;;5084850;28;20036;-80
2022/06/24 04:50:19;;;;;;;7.78;3.40;;;19.50;99.90;;;;;;5069144;28;20032;-79
2022/06/24 04:52:45;;;;;;;9.00;3.47;;;19.60;99.90;;;;;;5066083;28;20043;-79
2022/06/24 04:55:11;;;;;;;8.05;3.67;;;19.70;99.90;;;;;;5069098;28;20382;-80
2022/06/24 04:57:38;;;;;;;8.68;3.63;;;19.80;99.90;;;;;;5045582;28;20032;-80
2022/06/24 05:00:05;;;;;;;10.32;4.00;;;19.90;99.90;;;;;;5086300;28;20040;-80
2022/06/24 05:02:31;;;;;;;7.68;3.50;;;20.00;99.90;;;;;;5067857;28;20040;-81
2022/06/24 05:04:57;;;;;;;9.93;3.78;;;20.10;99.90;;;;;;5046710;28;20482;-79
2022/06/24 05:07:23;;;;;;;8.55;3.70;;;20.10;99.90;;;;;;5052189;28;20032;-80
2022/06/24 05:09:48;;;;;;;9.82;3.70;;;20.20;99.90;;;;;;5085717;28;20032;-80
2022/06/24 05:12:14;;;;;;;11.18;3.45;;;20.20;99.90;;;;;;5085016;28;20079;-80
2022/06/24 05:14:40;;;;;;;8.63;3.58;;;20.30;99.90;;;;;;5054007;28;20044;-79
2022/06/24 05:17:05;;;;;;;9.25;4.20;;;20.30;99.90;;;;;;5049824;28;20044;-79
2022/06/24 05:19:31;;;;;;;8.30;3.50;;;20.30;99.90;;;;;;5068007;28;20428;-80
2022/06/24 05:21:57;;;;;;;10.02;3.53;;;20.40;99.90;;;;;;5063468;28;20028;-79
2022/06/24 05:24:22;;;;;;;11.00;3.50;;;20.40;99.90;;;;;;5053025;28;20043;-79
2022/06/24 05:26:49;;;;;;;8.18;3.50;;;20.50;99.90;;;;;;5063753;28;20047;-80
2022/06/24 05:29:15;;;;;;;9.80;3.55;;;20.50;99.90;;;;;;5066514;28;20042;-79
2022/06/24 05:31:41;;;;;;;8.73;3.47;;;20.60;99.90;;;;;;5075259;28;20041;-79
2022/06/24 05:34:07;;;;;;;14.60;3.63;;;20.70;99.90;;;;;;5063759;28;20040;-80
2022/06/24 05:36:34;;;;;;;8.52;3.38;;;20.70;99.90;;;;;;5049756;28;20046;-79
2022/06/24 05:39:04;;;;;;;9.02;3.53;;;20.70;99.90;;;;;;5044588;28;20043;-79
2022/06/24 05:41:30;;;;;;;10.88;3.80;;;20.70;99.90;;;;;;5082660;28;20042;-80
2022/06/24 05:43:55;;;;;;;8.10;3.58;;;20.70;99.90;;;;;;5060286;28;20120;-79
2022/06/24 05:46:21;;;;;;;9.40;4.13;;;20.60;99.90;;;;;;5063604;28;20131;-79
2022/06/24 05:48:47;;;;;;;8.50;3.47;;;20.70;99.90;;;;;;5082518;28;21120;-79
2022/06/24 05:51:18;;;;;;;8.75;3.83;;;20.80;99.90;;;;;;5068512;28;20044;-79
2022/06/24 05:56:30;;;;;;;10.13;4.00;;;21.20;99.90;;;;;;5081471;28;20438;-79
2022/06/24 05:58:57;;;;;;;9.00;3.70;;;21.20;99.90;;;;;;5080468;28;20036;-79
2022/06/24 06:01:23;;;;;;;9.48;3.67;;;21.30;99.90;;;;;;5079417;28;20058;-79
2022/06/24 06:03:49;;;;;;;9.68;3.50;;;21.20;99.90;;;;;;5066291;28;20040;-80
2022/06/24 06:06:15;;;;;;;11.02;4.32;;;21.20;99.90;;;;;;5064228;28;20112;-78
2022/06/24 06:08:40;;;;;;;7.93;3.85;;;21.10;99.90;;;;;;5027765;28;20036;-79
2022/06/24 06:11:13;;;;;;;7.53;3.50;;;21.00;99.90;;;;;;5066798;28;20037;-79
2022/06/24 06:13:40;;;;;;;10.05;3.92;;;20.90;99.90;;;;;;5068130;28;20087;-78
2022/06/24 06:16:06;;;;;;;10.82;4.32;;;20.80;99.90;;;;;;5045349;28;20040;-78
2022/06/24 06:18:32;;;;;;;11.68;4.82;;;20.80;99.90;;;;;;5065957;28;20093;-78
2022/06/24 06:21:02;;;;;;;15.95;6.57;;;20.60;99.90;;;;;;5064045;28;20039;-78
2022/06/24 06:23:28;;;;;;;13.48;6.07;;;20.50;99.90;;;;;;5047045;28;20040;-78
2022/06/24 06:25:56;;;;;;;15.95;6.90;;;20.30;99.90;;;;;;5078445;28;20101;-79
2022/06/24 06:28:21;;;;;;;13.20;6.60;;;20.20;99.90;;;;;;5063729;28;20032;-77
2022/06/24 06:30:47;;;;;;;12.95;6.28;;;20.10;99.90;;;;;;5067458;28;20202;-79
2022/06/24 06:33:13;;;;;;;12.57;6.20;;;19.90;99.90;;;;;;5049979;28;20105;-79
2022/06/24 06:35:38;;;;;;;15.55;7.03;;;19.80;99.90;;;;;;5039968;28;20681;-79
2022/06/24 06:38:04;;;;;;;13.70;6.75;;;19.80;99.90;;;;;;5038600;28;20626;-78
2022/06/24 06:40:33;;;;;;;14.57;7.05;;;19.80;99.90;;;;;;5063010;28;20051;-78
2022/06/24 06:43:00;;;;;;;13.35;6.88;;;19.80;99.90;;;;;;5057961;28;20036;-80
2022/06/24 06:45:27;;;;;;;12.32;7.43;;;19.80;99.90;;;;;;5048897;28;20043;-79
2022/06/24 06:47:55;;;;;;;12.10;6.80;;;19.80;99.90;;;;;;5029315;28;20067;-78
2022/06/24 06:50:21;;;;;;;12.60;7.35;;;19.70;99.90;;;;;;5077522;28;20067;-78
2022/06/24 06:52:47;;;;;;;12.93;7.30;;;19.70;99.90;;;;;;5062430;28;20078;-79
2022/06/24 06:55:12;;;;;;;12.98;7.25;;;19.80;99.90;;;;;;5083859;28;20040;-78
2022/06/24 06:57:38;;;;;;;12.68;7.15;;;19.90;99.90;;;;;;5050746;28;20043;-79
2022/06/24 07:00:05;;;;;;;12.50;7.07;;;19.90;99.90;;;;;;5066013;28;20094;-79
2022/06/24 07:02:31;;;;;;;14.57;7.20;;;20.00;99.90;;;;;;5052803;28;20425;-80
2022/06/24 07:04:57;;;;;;;13.35;7.00;;;20.00;99.90;;;;;;5082330;28;20115;-80
2022/06/24 07:07:23;;;;;;;13.85;7.55;;;20.10;99.90;;;;;;5033073;28;20638;-80
2022/06/24 07:09:48;;;;;;;14.52;7.05;;;20.10;99.90;;;;;;5085946;28;20397;-80
2022/06/24 07:12:14;;;;;;;13.15;7.47;;;20.00;99.90;;;;;;5069374;28;20087;-80
2022/06/24 07:14:43;;;;;;;13.95;6.80;;;20.00;99.90;;;;;;5069670;28;20456;-80
2022/06/24 07:17:09;;;;;;;13.05;7.22;;;20.00;99.90;;;;;;5069581;28;20039;-80
2022/06/24 07:19:36;;;;;;;15.95;7.22;;;20.00;99.90;;;;;;5084055;28;20052;-80
2022/06/24 07:22:03;;;;;;;14.88;7.65;;;20.00;99.90;;;;;;5069307;28;20469;-80
2022/06/24 07:24:28;;;;;;;14.95;7.47;;;20.00;99.90;;;;;;5086740;28;20468;-79
2022/06/24 07:26:54;;;;;;;15.77;9.07;;;20.10;99.90;;;;;;5070120;28;20108;-78
2022/06/24 07:29:20;;;;;;;20.05;12.20;;;20.10;99.90;;;;;;5033833;28;20036;-78
2022/06/24 07:31:47;;;;;;;18.85;10.48;;;20.10;99.90;;;;;;5082701;28;20071;-78
2022/06/24 07:34:17;;;;;;;17.92;10.57;;;20.10;99.90;;;;;;5066791;28;20110;-78
2022/06/24 07:36:43;;;;;;;15.88;8.93;;;20.10;99.90;;;;;;5063420;28;20032;-78
2022/06/24 07:39:09;;;;;;;14.38;8.23;;;20.00;99.90;;;;;;5065261;28;20195;-78
2022/06/24 07:41:35;;;;;;;15.65;8.00;;;20.00;99.90;;;;;;5081241;28;20070;-78
2022/06/24 07:44:01;;;;;;;17.55;8.48;;;20.00;99.90;;;;;;5025507;28;20047;-78
2022/06/24 07:46:27;;;;;;;14.90;7.95;;;20.00;99.90;;;;;;5082782;28;20423;-79
2022/06/24 07:48:53;;;;;;;14.57;7.30;;;20.10;99.90;;;;;;5072094;28;20032;-78
2022/06/24 07:51:19;;;;;;;14.57;7.80;;;20.10;99.90;;;;;;5050698;28;20526;-79
2022/06/24 07:53:47;;;;;;;16.00;8.75;;;20.30;99.90;;;;;;5067888;28;20066;-79
2022/06/24 07:58:58;;;;;;;17.13;8.23;;;20.30;99.90;;;;;;5073827;28;20451;-80
2022/06/24 08:01:24;;;;;;;15.32;8.32;;;20.30;99.90;;;;;;5053720;28;20028;-79
2022/06/24 08:03:50;;;;;;;14.68;8.55;;;20.30;99.90;;;;;;5019440;28;20090;-80
2022/06/24 08:06:16;;;;;;;13.38;7.55;;;20.30;99.90;;;;;;5085956;28;20040;-80
2022/06/24 08:08:42;;;;;;;12.68;7.15;;;20.20;99.90;;;;;;5081103;28;20032;-80
2022/06/24 08:11:08;;;;;;;12.05;7.95;;;20.20;99.90;;;;;;5053473;28;20395;-80
2022/06/24 08:13:34;;;;;;;15.52;7.25;;;20.20;99.90;;;;;;5034282;28;20113;-80
2022/06/24 08:16:00;;;;;;;14.85;7.80;;;20.30;99.90;;;;;;5067007;28;20085;-80
2022/06/24 08:18:27;;;;;;;11.68;6.57;;;20.30;99.90;;;;;;5052661;28;20105;-80
2022/06/24 08:20:53;;;;;;;15.55;7.05;;;20.40;99.90;;;;;;5046488;28;20047;-81
2022/06/24 08:23:19;;;;;;;11.80;6.05;;;20.50;99.90;;;;;;5048816;28;20065;-81
2022/06/24 08:25:44;;;;;;;12.80;6.15;;;20.60;99.90;;;;;;5070045;28;20035;-82
2022/06/24 08:28:10;;;;;;;11.35;5.90;;;20.60;99.90;;;;;;5047317;28;20127;-82
2022/06/24 08:30:36;;;;;;;11.43;5.72;;;20.70;99.90;;;;;;5066653;28;20066;-81
2022/06/24 08:33:03;;;;;;;10.77;5.22;;;20.70;99.90;;;;;;5061185;28;20042;-81
2022/06/24 08:35:29;;;;;;;12.13;5.43;;;20.70;99.90;;;;;;5067279;28;20051;-81
2022/06/24 08:37:56;;;;;;;11.30;5.00;;;20.70;99.90;;;;;;5064011;28;20048;-82
2022/06/24 08:40:26;;;;;;;12.50;5.00;;;20.80;99.90;;;;;;5081826;28;20047;-80
2022/06/24 08:42:55;;;;;;;11.45;4.70;;;20.80;99.90;;;;;;5063112;28;20036;-81
2022/06/24 08:45:22;;;;;;;11.75;5.32;;;20.80;99.90;;;;;;5071373;28;20071;-81
2022/06/24 08:47:49;;;;;;;11.68;4.72;;;20.80;99.90;;;;;;5025904;28;20128;-81
2022/06/24 08:50:16;;;;;;;11.02;4.63;;;20.80;99.90;;;;;;5052574;28;20111;-81
2022/06/24 08:52:49;;;;;;;11.00;4.63;;;20.80;99.90;;;;;;5068864;28;20052;-81
2022/06/24 08:55:20;;;;;;;12.10;4.53;;;21.00;99.90;;;;;;5082014;28;20048;-81
2022/06/24 08:57:46;;;;;;;10.77;5.22;;;21.10;99.90;;;;;;5077101;28;20528;-81
2022/06/24 09:00:13;;;;;;;10.65;4.70;;;21.20;99.90;;;;;;5049860;28;20039;-81
2022/06/24 09:02:41;;;;;;;10.52;4.80;;;21.20;99.90;;;;;;5059402;28;20193;-81
2022/06/24 09:05:12;;;;;;;9.88;5.25;;;21.30;99.90;;;;;;5084796;28;20047;-81
2022/06/24 09:07:38;;;;;;;10.77;5.18;;;21.30;99.90;;;;;;5046995;28;20040;-81
2022/06/24 09:10:10;;;;;;;11.98;5.18;;;21.20;99.90;;;;;;5044550;28;20040;-81
2022/06/24 09:12:41;;;;;;;13.53;4.87;;;21.10;99.90;;;;;;5062465;28;20498;-81
2022/06/24 09:15:09;;;;;;;12.07;5.18;;;21.00;99.90;;;;;;5057295;28;20360;-81
2022/06/24 09:17:36;;;;;;;12.15;5.32;;;21.00;99.90;;;;;;5046812;28;20041;-81
2022/06/24 09:20:27;;;;;;;10.80;4.93;;;20.90;99.90;;;;;;5059839;28;20052;-81
2022/06/24 09:23:09;;;;;;;9.23;4.75;;;20.90;99.90;;;;;;5059915;28;20119;-80
2022/06/24 09:25:53;;;;;;;9.35;4.68;;;20.90;99.90;;;;;;5064906;28;20044;-81
2022/06/24 09:28:24;;;;;;;10.43;5.22;;;20.90;99.90;;;;;;5083778;28;20378;-81
2022/06/24 09:30:50;;;;;;;12.65;5.07;;;20.90;99.90;;;;;;5076692;28;20450;-81
2022/06/24 09:33:18;;;;;;;10.25;5.00;;;20.90;99.90;;;;;;5047626;28;20398;-80
2022/06/24 09:35:44;;;;;;;10.30;4.78;;;20.90;99.90;;;;;;5056284;28;20032;-80
2022/06/24 09:38:11;;;;;;;13.27;5.47;;;20.90;99.90;;;;;;5038479;28;20531;-79
2022/06/24 09:40:39;;;;;;;10.75;5.07;;;20.80;99.90;;;;;;5077720;28;20048;-79
2022/06/24 09:43:06;;;;;;;9.77;5.30;;;20.80;99.90;;;;;;5081864;28;20032;-79
2022/06/24 09:45:49;;;;;;;9.13;4.72;;;20.80;99.90;;;;;;5066783;28;20101;-79
2022/06/24 09:48:28;;;;;;;;;;;20.80;99.90;;;;;;5084863;28;20036;-78
2022/06/24 09:50:59;;;;;;;9.75;4.80;;;20.80;99.90;;;;;;5083712;28;19920;-78
2022/06/24 09:53:26;;;;;;;10.75;5.10;;;20.70;99.90;;;;;;5083815;28;20481;-77
2022/06/24 09:55:53;;;;;;;11.52;5.57;;;20.70;99.90;;;;;;5050102;28;20063;-77
2022/06/24 09:58:22;;;;;;;10.60;4.72;;;20.70;99.90;;;;;;5076359;28;20043;-78
2022/06/24 10:00:49;;;;;;;10.40;4.20;;;20.70;99.90;;;;;;5067386;28;20049;-78
2022/06/24 10:03:15;;;;;;;10.23;5.00;;;20.70;99.90;;;;;;5079406;28;20355;-78
2022/06/24 10:05:45;;;;;;;11.95;4.72;;;20.60;99.90;;;;;;5067816;28;20536;-78
2022/06/24 10:08:14;;;;;;;9.60;4.68;;;20.70;99.90;;;;;;5084849;28;20123;-78
2022/06/24 10:10:45;;;;;;;9.32;4.70;;;20.70;99.90;;;;;;5067232;28;20067;-78
2022/06/24 10:13:21;;;;;;;8.80;4.35;;;20.70;99.90;;;;;;5085103;28;20044;-78
2022/06/24 10:15:48;;;;;;;10.63;4.53;;;20.70;99.90;;;;;;5084049;28;20059;-78
2022/06/24 10:18:15;;;;;;;10.63;4.75;;;20.70;99.90;;;;;;5051341;28;20036;-79
2022/06/24 10:20:45;;;;;;;11.02;4.80;;;20.60;99.90;;;;;;5052861;28;20036;-78
2022/06/24 10:23:39;;;;;;;9.55;4.25;;;20.60;99.90;;;;;;5043607;28;20029;-79
2022/06/24 10:26:09;;;;;;;11.20;4.55;;;20.50;99.90;;;;;;5066112;28;20059;-79
2022/06/24 10:29:02;;;;;;;10.57;4.70;;;20.40;99.90;;;;;;5083188;28;20616;-79
2022/06/24 10:31:44;;;;;;;10.98;4.22;;;20.40;99.90;;;;;;5067190;28;20042;-77
2022/06/24 10:34:11;;;;;;;9.48;4.13;;;20.30;99.90;;;;;;5084682;28;20567;-78
2022/06/24 10:36:36;;;;;;;9.18;3.92;;;20.10;99.90;;;;;;5070544;28;20078;-78
2022/06/24 10:39:11;;;;;;;9.98;4.25;;;20.00;99.90;;;;;;5087287;28;20044;-78
2022/06/24 10:41:38;;;;;;;9.18;4.07;;;20.00;99.90;;;;;;5085430;28;20120;-78
2022/06/24 10:44:29;;;;;;;10.38;3.70;;;19.90;99.90;;;;;;5065078;28;20047;-79
2022/06/24 10:47:10;;;;;;;10.02;3.53;;;19.90;99.90;;;;;;5057928;28;20283;-79
2022/06/24 10:49:54;;;;;;;7.35;3.42;;;19.80;99.90;;;;;;5063640;28;20555;-79
2022/06/24 10:52:39;;;;;;;9.48;4.35;;;19.70;99.90;;;;;;5072537;28;20092;-79
2022/06/24 10:55:17;;;;;;;9.52;3.80;;;19.70;99.90;;;;;;5050406;28;20040;-79
2022/06/24 10:57:56;;;;;;;9.32;3.97;;;19.70;99.90;;;;;;5071246;28;20090;-80
2022/06/24 11:00:27;;;;;;;9.60;3.83;;;19.70;99.90;;;;;;5053129;28;20043;-79
2022/06/24 11:03:11;;;;;;;10.10;4.00;;;19.60;99.90;;;;;;5069562;28;20436;-79
2022/06/24 11:05:39;;;;;;;10.73;4.47;;;19.60;99.90;;;;;;5081261;28;20135;-79
2022/06/24 11:08:21;;;;;;;9.95;4.05;;;19.60;99.90;;;;;;5054065;28;20036;-80
2022/06/24 11:10:48;;;;;;;9.35;3.92;;;19.60;99.90;;;;;;5071579;28;20493;-82
2022/06/24 11:13:14;;;;;;;10.88;3.95;;;19.50;99.90;;;;;;5085378;28;20044;-81
2022/06/24 11:15:48;;;;;;;11.55;4.22;;;19.40;99.90;;;;;;5053763;28;20037;-82
2022/06/24 11:18:20;;;;;;;11.00;3.95;;;19.40;99.90;;;;;;5069740;28;20521;-80
2022/06/24 11:20:59;;;;;;;8.90;3.80;;;19.30;99.90;;;;;;5071606;28;20067;-81
2022/06/24 11:23:37;;;;;;;8.10;3.58;;;19.30;99.90;;;;;;5070951;28;20042;-80
2022/06/24 11:26:15;;;;;;;7.93;3.40;;;19.20;99.90;;;;;;5068690;28;20494;-79
2022/06/24 11:28:42;;;;;;;8.48;3.20;;;19.20;99.90;;;;;;5087146;28;20032;-80
2022/06/24 11:31:29;;;;;;;8.25;3.33;;;19.10;99.90;;;;;;5087561;28;20042;-80
2022/06/24 11:34:04;;;;;;;9.18;3.05;;;19.10;99.90;;;;;;5063273;28;20408;-80
2022/06/24 11:36:35;;;;;;;8.40;2.70;;;19.00;99.90;;;;;;5088413;28;20035;-80
2022/06/24 11:39:06;;;;;;;6.65;2.47;;;18.90;99.90;;;;;;5070912;28;20047;-79
2022/06/24 11:41:37;;;;;;;7.07;2.30;;;18.90;99.90;;;;;;5070623;28;20039;-79
2022/06/24 11:44:03;;;;;;;8.65;2.83;;;18.80;99.90;;;;;;5069121;28;20110;-79
2022/06/24 11:46:28;;;;;;;5.53;2.30;;;18.70;99.90;;;;;;5071591;28;20537;-78
2022/06/24 11:49:13;;;;;;;6.32;2.30;;;18.60;99.90;;;;;;5086356;28;20531;-79
2022/06/24 11:51:41;;;;;;;13.10;2.70;;;18.60;99.90;;;;;;5066443;28;20089;-78
2022/06/24 11:54:09;;;;;;;6.88;2.10;;;18.50;99.90;;;;;;5070454;28;20060;-78
2022/06/24 11:56:39;;;;;;;6.60;2.38;;;18.50;99.90;;;;;;5072293;28;20758;-78
2022/06/24 11:59:06;;;;;;;7.70;2.75;;;18.40;99.90;;;;;;5083992;28;20032;-78
2022/06/24 12:01:33;;;;;;;6.38;2.17;;;18.40;99.90;;;;;;5069551;28;20043;-79
2022/06/24 12:04:00;;;;;;;10.75;2.75;;;18.40;99.90;;;;;;5053399;28;20072;-78
2022/06/24 12:06:27;;;;;;;6.85;2.38;;;18.30;99.90;;;;;;5052340;28;20316;-79
2022/06/24 12:08:55;;;;;;;7.32;2.60;;;18.40;99.90;;;;;;5053413;28;20032;-79
2022/06/24 12:11:21;;;;;;;7.53;2.55;;;18.40;99.90;;;;;;5037074;28;20038;-79
2022/06/24 12:13:57;;;;;;;7.47;2.70;;;18.50;99.90;;;;;;5068774;28;20036;-79
2022/06/24 12:16:28;;;;;;;6.68;2.50;;;18.50;99.90;;;;;;5068607;28;20112;-80
2022/06/24 12:18:54;;;;;;;7.30;2.63;;;18.50;99.90;;;;;;5069547;28;20044;-79
2022/06/24 12:21:30;;;;;;;9.30;2.78;;;18.60;99.90;;;;;;5068341;28;20557;-80
2022/06/24 12:23:56;;;;;;;7.72;2.90;;;18.70;99.90;;;;;;5071021;28;20032;-80
2022/06/24 12:26:24;;;;;;;7.25;2.72;;;18.70;99.90;;;;;;5087346;28;20040;-80
2022/06/24 12:29:02;;;;;;;8.50;2.90;;;18.80;99.90;;;;;;5070602;28;20501;-80
2022/06/24 12:31:29;;;;;;;7.38;2.78;;;18.90;99.90;;;;;;5086256;28;20040;-81
2022/06/24 12:33:56;;;;;;;7.85;2.90;;;18.90;99.90;;;;;;5039216;28;20045;-80
2022/06/24 12:36:34;;;;;;;7.80;2.78;;;18.90;99.90;;;;;;5071000;28;20038;-81
2022/06/24 12:39:08;;;;;;;6.45;2.60;;;18.90;99.90;;;;;;5085336;28;20583;-80
2022/06/24 12:41:47;;;;;;;7.07;2.60;;;18.90;99.90;;;;;;5086021;28;20047;-80
2022/06/24 12:44:14;;;;;;;8.20;2.80;;;18.90;99.90;;;;;;5081621;28;20036;-81
2022/06/24 12:52:29;;;;;;;7.68;2.80;;;19.10;99.90;;;;;;5086298;28;20044;-80
2022/06/24 12:54:55;;;;;;;6.50;2.53;;;19.20;99.90;;;;;;5069564;28;20082;-81
2022/06/24 12:57:21;;;;;;;7.40;2.78;;;19.40;99.90;;;;;;5028366;28;20117;-81
2022/06/24 12:59:46;;;;;;;8.32;2.80;;;19.60;99.90;;;;;;5086419;28;20024;-81
2022/06/24 13:02:13;;;;;;;8.25;2.80;;;19.70;99.90;;;;;;5044617;28;20071;-82
2022/06/24 13:04:39;;;;;;;7.00;2.70;;;19.80;99.90;;;;;;5074884;28;20119;-82